Time;durP1;ratioP1;P1;durP2;ratioP2;P2;SDS_P1;SDS_P2;PMS_P1;PMS_P2;Temp;Humidity;BMP_temperature;BMP_pressure;BME280_temperature;BME280_humidity;BME280_pressure;Samples;Min_cycle;Max_cycle;Signal;HPM_P1;HPM_P2
2022/11/26 00:00:56;;;;;;;21.10;11.13;;;;;;;;;;5099311;28;20427;-79
2022/11/26 00:03:22;;;;;;;12.77;7.90;;;;;;;;;;5078471;28;20720;-79
2022/11/26 00:05:50;;;;;;;14.27;8.53;;;;;;;;;;5094482;28;20241;-77
2022/11/26 00:08:19;;;;;;;16.57;9.17;;;;;;;;;;5091457;28;20185;-80
2022/11/26 00:10:46;;;;;;;20.53;10.67;;;;;;;;;;5081413;28;20188;-78
2022/11/26 00:13:17;;;;;;;21.80;10.80;;;;;;;;;;5079952;28;20197;-78
2022/11/26 00:15:43;;;;;;;20.30;11.20;;;;;;;;;;5098730;28;20206;-77
2022/11/26 00:18:11;;;;;;;18.33;9.50;;;;;;;;;;5082327;28;20681;-77
2022/11/26 00:20:38;;;;;;;31.83;15.07;;;;;;;;;;5060787;28;20639;-77
2022/11/26 00:23:05;;;;;;;28.27;14.13;;;;;;;;;;5097894;28;20208;-77
2022/11/26 00:25:40;;;;;;;23.80;11.13;;;;;;;;;;5062001;28;20192;-76
2022/11/26 00:28:36;;;;;;;12.23;7.47;;;;;;;;;;5073082;28;20208;-76
2022/11/26 00:31:04;;;;;;;9.37;6.00;;;;;;;;;;5080537;28;20263;-76
2022/11/26 00:33:30;;;;;;;9.73;6.40;;;;;;;;;;5070266;28;20239;-76
2022/11/26 00:35:58;;;;;;;9.73;6.50;;;;;;;;;;5076746;28;20196;-76
2022/11/26 00:38:25;;;;;;;10.10;6.40;;;;;;;;;;5095276;28;20187;-80
2022/11/26 00:40:51;;;;;;;10.80;5.87;;;;;;;;;;5076104;28;20232;-83
2022/11/26 00:43:17;;;;;;;12.40;6.17;;;;;;;;;;5076608;28;20181;-80
2022/11/26 00:45:44;;;;;;;9.90;5.63;;;;;;;;;;5087271;28;20172;-85
2022/11/26 00:48:10;;;;;;;10.20;6.33;;;;;;;;;;5087110;28;20212;-77
2022/11/26 00:50:37;;;;;;;8.97;5.70;;;;;;;;;;5088054;28;20192;-78
2022/11/26 00:53:04;;;;;;;11.83;5.83;;;;;;;;;;5073936;28;20375;-78
2022/11/26 00:55:36;;;;;;;11.37;6.50;;;;;;;;;;5087354;28;20223;-77
2022/11/26 00:58:02;;;;;;;12.23;5.87;;;;;;;;;;5076240;28;20289;-78
2022/11/26 01:00:29;;;;;;;10.73;6.37;;;;;;;;;;5079300;28;20205;-78
2022/11/26 01:02:56;;;;;;;13.73;6.57;;;;;;;;;;5085375;28;20187;-79
2022/11/26 01:05:23;;;;;;;11.10;5.83;;;;;;;;;;5077466;28;20176;-77
2022/11/26 01:07:52;;;;;;;10.17;5.57;;;;;;;;;;5066902;28;20916;-79
2022/11/26 01:10:18;;;;;;;10.93;5.87;;;;;;;;;;5087715;28;20170;-78
2022/11/26 01:12:45;;;;;;;11.17;6.07;;;;;;;;;;5088692;28;20195;-77
2022/11/26 01:15:11;;;;;;;12.63;6.40;;;;;;;;;;5074995;28;20200;-78
2022/11/26 01:17:37;;;;;;;11.37;6.10;;;;;;;;;;5058351;28;20211;-78
2022/11/26 01:20:04;;;;;;;12.40;6.40;;;;;;;;;;5085508;28;20747;-79
2022/11/26 01:22:30;;;;;;;10.43;6.67;;;;;;;;;;5091136;28;20178;-79
2022/11/26 01:24:56;;;;;;;17.83;8.47;;;;;;;;;;5078163;28;20176;-78
2022/11/26 01:27:22;;;;;;;12.40;7.17;;;;;;;;;;5070679;28;20284;-79
2022/11/26 01:29:48;;;;;;;12.80;7.40;;;;;;;;;;5087692;28;20424;-79
2022/11/26 01:32:14;;;;;;;11.23;7.27;;;;;;;;;;5088969;28;20179;-79
2022/11/26 01:34:41;;;;;;;12.33;6.93;;;;;;;;;;5077130;28;20267;-79
2022/11/26 01:37:11;;;;;;;10.03;6.73;;;;;;;;;;5076818;28;20722;-79
2022/11/26 01:39:38;;;;;;;8.77;5.90;;;;;;;;;;5088645;28;20176;-79
2022/11/26 01:42:26;;;;;;;11.57;6.57;;;;;;;;;;5089724;28;20200;-78
2022/11/26 01:44:52;;;;;;;11.90;7.20;;;;;;;;;;5087395;28;20195;-78
2022/11/26 01:47:23;;;;;;;10.23;6.03;;;;;;;;;;5090822;28;20204;-78
2022/11/26 01:50:09;;;;;;;10.17;6.53;;;;;;;;;;5064460;28;20898;-79
2022/11/26 01:52:35;;;;;;;11.37;6.53;;;;;;;;;;5088022;28;20185;-79
2022/11/26 01:55:01;;;;;;;11.53;6.77;;;;;;;;;;5079377;28;20184;-78
2022/11/26 01:57:29;;;;;;;11.27;6.67;;;;;;;;;;5101582;28;20554;-79
2022/11/26 02:00:00;;;;;;;11.90;6.33;;;;;;;;;;5097712;28;20617;-78
2022/11/26 02:02:28;;;;;;;10.77;6.03;;;;;;;;;;5087546;28;20276;-79
2022/11/26 02:05:29;;;;;;;12.17;6.23;;;;;;;;;;5088632;28;20187;-79
2022/11/26 02:07:56;;;;;;;11.40;6.40;;;;;;;;;;5030404;28;20234;-78
2022/11/26 02:10:22;;;;;;;13.57;6.77;;;;;;;;;;5067168;28;20213;-77
2022/11/26 02:12:50;;;;;;;11.17;6.63;;;;;;;;;;5060569;28;20180;-78
2022/11/26 02:15:17;;;;;;;12.23;7.30;;;;;;;;;;5081836;28;20256;-78
2022/11/26 02:17:43;;;;;;;12.63;6.53;;;;;;;;;;5090924;28;20200;-78
2022/11/26 02:20:12;;;;;;;10.43;6.20;;;;;;;;;;5077633;28;20277;-78
2022/11/26 02:22:38;;;;;;;10.23;6.20;;;;;;;;;;5076728;28;20180;-78
2022/11/26 02:25:18;;;;;;;8.53;5.83;;;;;;;;;;5084108;28;20216;-78
2022/11/26 02:27:44;;;;;;;10.70;6.50;;;;;;;;;;5091516;28;20209;-79
2022/11/26 02:30:12;;;;;;;13.23;6.33;;;;;;;;;;5062485;28;20237;-78
2022/11/26 02:32:58;;;;;;;11.40;6.60;;;;;;;;;;5072060;28;20179;-78
2022/11/26 02:35:27;;;;;;;9.90;6.57;;;;;;;;;;5079572;28;20212;-78
2022/11/26 02:37:58;;;;;;;9.73;6.23;;;;;;;;;;5094483;28;20740;-79
2022/11/26 02:40:25;;;;;;;10.27;6.73;;;;;;;;;;5101231;28;20192;-79
2022/11/26 02:42:51;;;;;;;10.77;6.03;;;;;;;;;;5095056;28;20176;-79
2022/11/26 02:45:19;;;;;;;11.23;5.97;;;;;;;;;;5090261;28;20234;-78
2022/11/26 02:47:46;;;;;;;12.27;6.57;;;;;;;;;;5090360;28;20200;-79
2022/11/26 02:50:16;;;;;;;14.47;7.73;;;;;;;;;;5099063;28;20255;-78
2022/11/26 02:52:42;;;;;;;12.70;6.90;;;;;;;;;;5094084;28;20586;-79
2022/11/26 02:55:10;;;;;;;14.47;7.00;;;;;;;;;;5105131;28;20184;-78
2022/11/26 02:57:47;;;;;;;13.70;7.07;;;;;;;;;;5072704;28;20208;-80
2022/11/26 03:00:14;;;;;;;11.50;6.23;;;;;;;;;;5095996;28;20699;-79
2022/11/26 03:02:44;;;;;;;13.23;6.90;;;;;;;;;;5097241;28;20171;-78
2022/11/26 03:05:11;;;;;;;12.30;6.03;;;;;;;;;;5090616;28;20196;-78
2022/11/26 03:07:37;;;;;;;13.70;6.10;;;;;;;;;;5094670;28;20746;-78
2022/11/26 03:10:05;;;;;;;13.63;6.80;;;;;;;;;;5076184;28;20645;-78
2022/11/26 03:12:31;;;;;;;16.13;6.93;;;;;;;;;;5077668;28;20187;-78
2022/11/26 03:14:57;;;;;;;11.73;6.20;;;;;;;;;;5093267;28;20564;-79
2022/11/26 03:17:23;;;;;;;11.37;5.77;;;;;;;;;;5089642;28;20204;-79
2022/11/26 03:19:49;;;;;;;11.00;6.20;;;;;;;;;;5086860;28;20619;-77
2022/11/26 03:22:16;;;;;;;12.20;6.37;;;;;;;;;;5091368;28;20191;-78
2022/11/26 03:24:42;;;;;;;12.67;5.93;;;;;;;;;;5084575;28;20662;-78
2022/11/26 03:27:08;;;;;;;12.97;6.27;;;;;;;;;;5085527;28;20209;-78
2022/11/26 03:29:35;;;;;;;12.17;6.50;;;;;;;;;;5068934;28;20271;-78
2022/11/26 03:32:01;;;;;;;11.97;6.33;;;;;;;;;;5091790;28;20268;-78
2022/11/26 03:34:27;;;;;;;12.13;6.50;;;;;;;;;;5073013;28;20717;-78
2022/11/26 03:36:53;;;;;;;12.50;6.10;;;;;;;;;;5085616;28;20200;-78
2022/11/26 03:39:19;;;;;;;12.47;5.90;;;;;;;;;;5071059;28;20197;-78
2022/11/26 03:41:45;;;;;;;18.47;6.60;;;;;;;;;;5084966;28;20208;-78
2022/11/26 03:44:12;;;;;;;10.83;6.10;;;;;;;;;;5076339;28;20596;-78
2022/11/26 03:46:39;;;;;;;11.97;5.80;;;;;;;;;;5081738;28;20219;-78
2022/11/26 03:49:05;;;;;;;10.33;6.50;;;;;;;;;;5079114;28;20204;-78
2022/11/26 03:51:31;;;;;;;12.33;6.23;;;;;;;;;;5065317;28;20240;-78
2022/11/26 03:53:57;;;;;;;13.37;6.20;;;;;;;;;;5072546;28;20180;-78
2022/11/26 03:56:23;;;;;;;17.47;10.10;;;;;;;;;;5090707;28;20231;-78
2022/11/26 03:58:49;;;;;;;17.53;9.50;;;;;;;;;;5089800;28;20236;-78
2022/11/26 04:01:16;;;;;;;18.57;7.83;;;;;;;;;;5094595;28;20493;-78
2022/11/26 04:03:42;;;;;;;13.17;6.67;;;;;;;;;;5091071;28;20178;-78
2022/11/26 04:06:08;;;;;;;13.13;6.77;;;;;;;;;;5078973;28;20213;-78
2022/11/26 04:08:34;;;;;;;12.77;7.10;;;;;;;;;;5095619;28;20208;-78
2022/11/26 04:11:01;;;;;;;10.83;6.47;;;;;;;;;;5089886;28;20185;-77
2022/11/26 04:13:27;;;;;;;10.47;6.20;;;;;;;;;;5099258;28;20184;-78
2022/11/26 04:15:53;;;;;;;15.53;6.67;;;;;;;;;;5091217;28;20176;-77
2022/11/26 04:18:19;;;;;;;12.53;6.40;;;;;;;;;;5075651;28;20181;-78
2022/11/26 04:20:45;;;;;;;17.53;6.47;;;;;;;;;;5080446;28;20199;-78
2022/11/26 04:23:11;;;;;;;10.50;5.83;;;;;;;;;;5088205;28;20176;-78
2022/11/26 04:25:37;;;;;;;11.17;6.20;;;;;;;;;;5074297;28;20310;-77
2022/11/26 04:28:04;;;;;;;13.63;6.10;;;;;;;;;;5081525;28;20201;-77
2022/11/26 04:30:30;;;;;;;15.03;6.70;;;;;;;;;;5094460;28;20181;-77
2022/11/26 04:32:56;;;;;;;12.77;6.13;;;;;;;;;;5076820;28;20564;-78
2022/11/26 04:35:22;;;;;;;11.10;6.40;;;;;;;;;;5070607;28;20435;-78
2022/11/26 04:37:48;;;;;;;17.20;6.90;;;;;;;;;;5089780;28;20228;-78
2022/11/26 04:40:14;;;;;;;10.40;6.37;;;;;;;;;;5098218;28;20295;-78
2022/11/26 04:42:41;;;;;;;13.00;7.03;;;;;;;;;;5074815;28;20184;-78
2022/11/26 04:45:07;;;;;;;11.20;6.07;;;;;;;;;;5085937;28;20217;-78
2022/11/26 04:47:33;;;;;;;11.00;6.67;;;;;;;;;;5077619;28;20192;-78
2022/11/26 04:49:59;;;;;;;12.30;6.67;;;;;;;;;;5067250;28;20177;-78
2022/11/26 04:52:25;;;;;;;15.53;6.77;;;;;;;;;;5073825;28;20234;-78
2022/11/26 04:54:52;;;;;;;12.17;6.67;;;;;;;;;;5087493;28;20644;-78
2022/11/26 04:57:18;;;;;;;12.60;6.90;;;;;;;;;;5087399;28;21026;-78
2022/11/26 04:59:44;;;;;;;10.23;6.53;;;;;;;;;;5090617;28;20193;-78
2022/11/26 05:02:10;;;;;;;14.03;6.90;;;;;;;;;;5097027;28;20181;-78
2022/11/26 05:04:36;;;;;;;10.70;6.53;;;;;;;;;;5096573;28;20188;-78
2022/11/26 05:07:02;;;;;;;9.27;6.00;;;;;;;;;;5098338;28;20208;-78
2022/11/26 05:09:28;;;;;;;9.80;5.90;;;;;;;;;;5096413;28;20198;-78
2022/11/26 05:11:55;;;;;;;7.53;5.40;;;;;;;;;;5084118;28;20184;-78
2022/11/26 05:14:21;;;;;;;8.80;5.30;;;;;;;;;;5057625;28;20212;-77
2022/11/26 05:16:47;;;;;;;10.57;6.23;;;;;;;;;;5076889;28;20754;-78
2022/11/26 05:19:13;;;;;;;8.07;5.40;;;;;;;;;;5086678;28;20180;-78
2022/11/26 05:21:40;;;;;;;9.57;5.37;;;;;;;;;;5087516;28;20288;-78
2022/11/26 05:24:06;;;;;;;9.87;6.07;;;;;;;;;;5088456;28;20717;-78
2022/11/26 05:26:33;;;;;;;7.97;5.40;;;;;;;;;;5092021;28;20211;-78
2022/11/26 05:28:59;;;;;;;9.20;5.60;;;;;;;;;;5071306;28;20185;-78
2022/11/26 05:31:25;;;;;;;9.83;6.80;;;;;;;;;;5085026;28;20192;-78
2022/11/26 05:33:51;;;;;;;10.50;6.43;;;;;;;;;;5085978;28;20762;-78
2022/11/26 05:36:17;;;;;;;11.63;6.50;;;;;;;;;;5074523;28;20205;-77
2022/11/26 05:38:43;;;;;;;12.57;6.63;;;;;;;;;;5091523;28;20310;-78
2022/11/26 05:41:09;;;;;;;7.43;6.17;;;;;;;;;;5081071;28;20197;-78
2022/11/26 05:43:36;;;;;;;8.70;5.60;;;;;;;;;;5086996;28;20550;-78
2022/11/26 05:46:03;;;;;;;7.47;5.63;;;;;;;;;;5073927;28;20757;-77
2022/11/26 05:48:29;;;;;;;7.60;5.60;;;;;;;;;;5083982;28;20185;-78
2022/11/26 05:51:02;;;;;;;8.17;5.97;;;;;;;;;;5068399;28;20184;-78
2022/11/26 05:53:29;;;;;;;8.17;5.40;;;;;;;;;;5083191;28;20223;-78
2022/11/26 05:55:55;;;;;;;8.20;5.77;;;;;;;;;;5088250;28;20284;-78
2022/11/26 05:58:21;;;;;;;9.93;5.50;;;;;;;;;;5081312;28;20291;-78
2022/11/26 06:00:47;;;;;;;13.10;6.30;;;;;;;;;;5083309;28;20201;-77
2022/11/26 06:03:13;;;;;;;11.63;6.67;;;;;;;;;;5077710;28;20223;-78
2022/11/26 06:05:40;;;;;;;10.33;6.07;;;;;;;;;;5066397;28;20547;-77
2022/11/26 06:08:06;;;;;;;15.77;7.50;;;;;;;;;;5097837;28;20219;-78
2022/11/26 06:10:32;;;;;;;19.20;7.83;;;;;;;;;;5098339;28;20242;-78
2022/11/26 06:12:58;;;;;;;12.60;7.70;;;;;;;;;;5094355;28;20195;-78
2022/11/26 06:15:24;;;;;;;12.53;7.37;;;;;;;;;;5098107;28;20174;-77
2022/11/26 06:17:50;;;;;;;14.40;7.97;;;;;;;;;;5093743;28;20280;-78
2022/11/26 06:20:17;;;;;;;14.10;7.67;;;;;;;;;;5090115;28;20224;-78
2022/11/26 06:22:43;;;;;;;15.37;8.83;;;;;;;;;;5074859;28;20189;-77
2022/11/26 06:25:11;;;;;;;12.60;8.40;;;;;;;;;;5055294;28;20185;-77
2022/11/26 06:27:37;;;;;;;14.20;8.23;;;;;;;;;;5087881;28;20975;-79
2022/11/26 06:30:04;;;;;;;11.47;7.33;;;;;;;;;;5089690;28;20222;-78
2022/11/26 06:32:31;;;;;;;13.13;8.30;;;;;;;;;;5088848;28;20188;-78
2022/11/26 06:34:57;;;;;;;13.07;8.23;;;;;;;;;;5074018;28;20189;-78
2022/11/26 06:37:24;;;;;;;14.80;7.63;;;;;;;;;;5060501;28;20925;-78
2022/11/26 06:39:50;;;;;;;13.77;7.17;;;;;;;;;;5080028;28;20205;-78
2022/11/26 06:42:16;;;;;;;13.73;7.10;;;;;;;;;;5082373;28;20191;-77
2022/11/26 06:44:42;;;;;;;13.97;7.50;;;;;;;;;;5084158;28;20191;-78
2022/11/26 06:47:12;;;;;;;10.07;6.60;;;;;;;;;;5073752;28;20192;-77
2022/11/26 06:49:38;;;;;;;11.63;7.13;;;;;;;;;;5076757;28;20244;-77
2022/11/26 06:52:05;;;;;;;10.47;6.43;;;;;;;;;;5096340;28;20674;-78
2022/11/26 06:54:31;;;;;;;10.63;7.23;;;;;;;;;;5093967;28;20184;-77
2022/11/26 06:56:57;;;;;;;13.73;7.70;;;;;;;;;;5077580;28;20204;-78
2022/11/26 06:59:23;;;;;;;12.80;7.00;;;;;;;;;;5080588;28;20200;-78
2022/11/26 07:01:49;;;;;;;15.03;8.10;;;;;;;;;;5064321;28;20734;-78
2022/11/26 07:04:15;;;;;;;10.17;6.93;;;;;;;;;;5087355;28;20175;-76
2022/11/26 07:06:44;;;;;;;11.57;6.47;;;;;;;;;;5086624;28;20207;-76
2022/11/26 07:09:10;;;;;;;15.13;7.87;;;;;;;;;;5081334;28;20246;-73
2022/11/26 07:11:37;;;;;;;16.90;7.60;;;;;;;;;;5088620;28;20233;-73
2022/11/26 07:14:03;;;;;;;13.40;7.07;;;;;;;;;;5090500;28;20224;-74
2022/11/26 07:16:30;;;;;;;12.17;7.40;;;;;;;;;;5073421;28;20210;-78
2022/11/26 07:18:56;;;;;;;12.33;6.80;;;;;;;;;;5091893;28;20172;-76
2022/11/26 07:21:23;;;;;;;10.60;6.30;;;;;;;;;;5080861;28;20208;-75
2022/11/26 07:23:49;;;;;;;14.73;7.47;;;;;;;;;;5077218;28;20172;-76
2022/11/26 07:26:16;;;;;;;12.07;6.97;;;;;;;;;;5084371;28;20196;-77
2022/11/26 07:28:43;;;;;;;13.83;8.13;;;;;;;;;;5083447;28;20246;-77
2022/11/26 07:31:10;;;;;;;15.20;8.27;;;;;;;;;;5046286;28;20187;-77
2022/11/26 07:33:37;;;;;;;13.90;8.07;;;;;;;;;;5084747;28;20611;-76
2022/11/26 07:36:04;;;;;;;16.33;7.60;;;;;;;;;;5066904;28;20208;-77
2022/11/26 07:38:30;;;;;;;14.40;7.80;;;;;;;;;;5079825;28;20229;-77
2022/11/26 07:41:02;;;;;;;12.43;7.13;;;;;;;;;;5085091;28;20220;-77
2022/11/26 07:43:28;;;;;;;17.13;7.70;;;;;;;;;;5064885;28;20232;-77
2022/11/26 07:45:54;;;;;;;14.67;8.20;;;;;;;;;;5082576;28;20173;-76
2022/11/26 07:48:21;;;;;;;10.27;6.80;;;;;;;;;;5079258;28;20184;-76
2022/11/26 07:50:47;;;;;;;11.67;6.93;;;;;;;;;;5079022;28;20184;-76
2022/11/26 07:53:13;;;;;;;12.40;6.67;;;;;;;;;;5075304;28;21924;-77
2022/11/26 07:55:40;;;;;;;11.83;6.50;;;;;;;;;;5077688;28;20187;-74
2022/11/26 07:58:06;;;;;;;18.37;7.20;;;;;;;;;;5074569;28;20264;-76
2022/11/26 08:00:32;;;;;;;12.47;7.27;;;;;;;;;;5074692;28;20687;-76
2022/11/26 08:02:59;;;;;;;15.73;7.93;;;;;;;;;;5080009;28;20189;-72
2022/11/26 08:05:25;;;;;;;12.63;7.70;;;;;;;;;;5080078;28;21457;-74
2022/11/26 08:07:51;;;;;;;15.30;8.30;;;;;;;;;;5079407;28;20282;-76
2022/11/26 08:10:17;;;;;;;15.33;8.60;;;;;;;;;;5083696;28;20203;-76
2022/11/26 08:12:44;;;;;;;17.03;9.57;;;;;;;;;;5083659;28;20185;-80
2022/11/26 08:15:10;;;;;;;15.10;9.40;;;;;;;;;;5062805;28;20230;-78
2022/11/26 08:17:36;;;;;;;14.13;8.80;;;;;;;;;;5064021;28;20262;-75
2022/11/26 08:20:03;;;;;;;16.53;9.37;;;;;;;;;;5086364;28;20183;-76
2022/11/26 08:22:30;;;;;;;13.57;8.30;;;;;;;;;;5064972;28;20172;-77
2022/11/26 08:24:56;;;;;;;14.57;8.60;;;;;;;;;;5083063;28;20225;-76
2022/11/26 08:27:22;;;;;;;15.40;8.03;;;;;;;;;;5084465;28;20205;-76
2022/11/26 08:29:48;;;;;;;17.83;9.10;;;;;;;;;;5075533;28;20175;-76
2022/11/26 08:32:14;;;;;;;13.43;8.60;;;;;;;;;;5088166;28;20257;-79
2022/11/26 08:34:40;;;;;;;19.53;9.90;;;;;;;;;;5083589;28;20190;-78
2022/11/26 08:37:07;;;;;;;17.33;10.87;;;;;;;;;;5089643;28;20223;-78
2022/11/26 08:39:33;;;;;;;16.33;11.27;;;;;;;;;;5088221;28;20241;-78
2022/11/26 08:41:59;;;;;;;17.73;10.90;;;;;;;;;;5085652;28;20260;-78
2022/11/26 08:44:25;;;;;;;16.27;10.27;;;;;;;;;;5093604;28;20176;-78
2022/11/26 08:46:52;;;;;;;14.63;9.53;;;;;;;;;;5089747;28;20189;-78
2022/11/26 08:49:18;;;;;;;15.40;9.37;;;;;;;;;;5070641;28;20192;-78
2022/11/26 08:51:44;;;;;;;12.80;9.07;;;;;;;;;;5091594;28;20224;-78
2022/11/26 08:54:10;;;;;;;13.33;9.83;;;;;;;;;;5068607;28;20276;-78
2022/11/26 08:56:36;;;;;;;12.67;8.53;;;;;;;;;;5084447;28;20204;-78
2022/11/26 08:59:03;;;;;;;14.53;8.93;;;;;;;;;;5088640;28;20184;-78
2022/11/26 09:01:31;;;;;;;11.27;7.47;;;;;;;;;;5070270;28;20236;-78
2022/11/26 09:03:58;;;;;;;9.90;7.33;;;;;;;;;;5071210;28;20181;-77
2022/11/26 09:06:26;;;;;;;11.57;7.37;;;;;;;;;;5091323;28;20201;-78
2022/11/26 09:11:39;;;;;;;12.60;8.30;;;;;;;;;;5073231;28;20187;-77
2022/11/26 09:14:06;;;;;;;12.80;7.83;;;;;;;;;;5088104;28;20192;-78
2022/11/26 09:16:32;;;;;;;10.47;7.00;;;;;;;;;;5089186;28;20211;-78
2022/11/26 09:19:02;;;;;;;14.83;7.40;;;;;;;;;;5072534;28;20189;-78
2022/11/26 09:21:29;;;;;;;9.67;6.80;;;;;;;;;;5057984;28;20851;-78
2022/11/26 09:23:55;;;;;;;9.97;6.33;;;;;;;;;;5061274;28;20185;-78
2022/11/26 09:26:22;;;;;;;14.63;7.03;;;;;;;;;;5085816;28;20368;-78
2022/11/26 09:28:48;;;;;;;11.30;6.87;;;;;;;;;;5092423;28;20743;-77
2022/11/26 09:31:15;;;;;;;11.57;6.67;;;;;;;;;;5081545;28;20682;-77
2022/11/26 09:33:41;;;;;;;9.90;6.60;;;;;;;;;;5086721;28;20191;-77
2022/11/26 09:36:08;;;;;;;12.30;6.13;;;;;;;;;;5084305;28;20208;-77
2022/11/26 09:38:35;;;;;;;13.30;7.00;;;;;;;;;;5087121;28;20655;-77
2022/11/26 09:41:08;;;;;;;10.13;6.27;;;;;;;;;;5069434;28;20205;-78
2022/11/26 09:43:40;;;;;;;11.57;6.30;;;;;;;;;;5082442;28;20674;-78
2022/11/26 09:46:07;;;;;;;11.77;7.37;;;;;;;;;;5070732;28;20644;-77
2022/11/26 09:48:34;;;;;;;11.40;6.60;;;;;;;;;;5062687;28;20174;-78
2022/11/26 09:51:03;;;;;;;18.40;7.60;;;;;;;;;;5066220;28;20181;-78
2022/11/26 09:53:31;;;;;;;15.80;7.23;;;;;;;;;;5072462;28;20871;-78
2022/11/26 09:55:59;;;;;;;11.90;6.57;;;;;;;;;;5083029;28;20176;-77
2022/11/26 09:58:25;;;;;;;16.37;7.23;;;;;;;;;;5072355;28;20253;-78
2022/11/26 10:00:53;;;;;;;13.30;6.97;;;;;;;;;;5076886;28;20215;-78
2022/11/26 10:03:22;;;;;;;20.20;9.00;;;;;;;;;;5070413;28;20181;-78
2022/11/26 10:06:00;;;;;;;12.97;7.30;;;;;;;;;;5088122;28;21300;-78
2022/11/26 10:08:45;;;;;;;16.27;8.27;;;;;;;;;;5066224;28;20937;-78
2022/11/26 10:11:24;;;;;;;16.67;8.23;;;;;;;;;;5078266;28;20187;-78
2022/11/26 10:13:58;;;;;;;18.17;8.67;;;;;;;;;;5069853;28;20295;-78
2022/11/26 10:16:33;;;;;;;17.53;8.50;;;;;;;;;;5088168;28;20211;-78
2022/11/26 10:18:59;;;;;;;19.83;8.30;;;;;;;;;;5086974;28;20192;-78
2022/11/26 10:21:29;;;;;;;18.40;7.40;;;;;;;;;;5067222;28;20231;-78
2022/11/26 10:24:02;;;;;;;16.97;7.43;;;;;;;;;;5052381;28;20267;-78
2022/11/26 10:26:30;;;;;;;15.37;7.77;;;;;;;;;;5084009;28;20227;-78
2022/11/26 10:29:16;;;;;;;16.77;8.10;;;;;;;;;;5085425;28;20177;-78
2022/11/26 10:31:45;;;;;;;18.13;11.20;;;;;;;;;;5071996;28;20280;-76
2022/11/26 10:34:13;;;;;;;25.47;12.30;;;;;;;;;;5087269;28;20215;-75
2022/11/26 10:36:40;;;;;;;23.87;12.33;;;;;;;;;;5079157;28;20207;-76
2022/11/26 10:39:07;;;;;;;20.03;12.33;;;;;;;;;;5079643;28;20192;-78
2022/11/26 10:41:34;;;;;;;17.40;12.63;;;;;;;;;;5084646;28;20201;-77
2022/11/26 10:44:19;;;;;;;20.87;11.70;;;;;;;;;;5084417;28;20189;-77
2022/11/26 10:46:46;;;;;;;20.77;12.23;;;;;;;;;;5081177;28;20688;-78
2022/11/26 10:49:19;;;;;;;21.07;13.73;;;;;;;;;;5067669;28;20690;-78
2022/11/26 10:51:47;;;;;;;24.57;14.97;;;;;;;;;;5087355;28;20188;-79
2022/11/26 10:54:23;;;;;;;23.73;13.10;;;;;;;;;;5071420;28;20558;-79
2022/11/26 10:56:52;;;;;;;19.43;10.37;;;;;;;;;;5088808;28;20215;-77
2022/11/26 10:59:24;;;;;;;16.17;10.13;;;;;;;;;;5084683;28;20191;-78
2022/11/26 11:01:52;;;;;;;16.37;10.60;;;;;;;;;;5062952;28;20224;-76
2022/11/26 11:04:31;;;;;;;19.50;12.23;;;;;;;;;;5075036;28;20647;-77
2022/11/26 11:06:58;;;;;;;22.90;12.33;;;;;;;;;;5078319;28;20572;-77
2022/11/26 11:09:29;;;;;;;19.63;12.10;;;;;;;;;;5074443;28;20181;-76
2022/11/26 11:12:16;;;;;;;18.47;13.67;;;;;;;;;;5060375;28;20237;-75
2022/11/26 11:14:46;;;;;;;20.83;12.70;;;;;;;;;;5086711;28;20286;-76
2022/11/26 11:17:18;;;;;;;20.33;12.03;;;;;;;;;;5088780;28;20709;-74
2022/11/26 11:19:45;;;;;;;19.07;12.03;;;;;;;;;;5080328;28;20731;-76
2022/11/26 11:22:18;;;;;;;21.73;13.53;;;;;;;;;;5082717;28;20287;-76
2022/11/26 11:24:45;;;;;;;22.67;14.10;;;;;;;;;;5084563;28;20176;-78
2022/11/26 11:27:24;;;;;;;22.20;13.87;;;;;;;;;;5059484;28;20216;-76
2022/11/26 11:29:51;;;;;;;17.03;12.03;;;;;;;;;;5080780;28;20267;-76
2022/11/26 11:32:34;;;;;;;18.03;12.20;;;;;;;;;;5071507;28;20188;-77
2022/11/26 11:35:33;;;;;;;20.57;13.97;;;;;;;;;;5080986;28;20215;-76
2022/11/26 11:37:59;;;;;;;25.03;13.47;;;;;;;;;;5071251;28;20668;-77
2022/11/26 11:40:29;;;;;;;22.23;13.40;;;;;;;;;;5084851;28;20781;-77
2022/11/26 11:42:57;;;;;;;21.13;13.30;;;;;;;;;;5065821;28;20229;-76
2022/11/26 11:45:30;;;;;;;23.00;14.27;;;;;;;;;;5080654;28;20176;-76
2022/11/26 11:47:58;;;;;;;24.93;15.03;;;;;;;;;;5079384;28;20228;-77
2022/11/26 11:50:35;;;;;;;32.50;17.30;;;;;;;;;;5073289;28;20659;-76
2022/11/26 11:53:28;;;;;;;25.87;16.10;;;;;;;;;;5084551;28;20261;-77
2022/11/26 11:55:57;;;;;;;28.53;16.83;;;;;;;;;;5083969;28;20722;-77
2022/11/26 11:58:26;;;;;;;28.63;19.03;;;;;;;;;;5084810;28;20188;-77
2022/11/26 12:01:15;;;;;;;31.33;20.63;;;;;;;;;;5067539;28;20208;-77
2022/11/26 12:04:02;;;;;;;26.53;18.67;;;;;;;;;;5082476;28;20196;-77
2022/11/26 12:06:48;;;;;;;25.93;17.30;;;;;;;;;;5066111;28;20200;-76
2022/11/26 12:09:14;;;;;;;24.33;16.30;;;;;;;;;;5077919;28;20196;-76
2022/11/26 12:12:03;;;;;;;29.07;17.27;;;;;;;;;;5084868;28;20177;-75
2022/11/26 12:14:33;;;;;;;25.37;16.97;;;;;;;;;;5085057;28;20249;-76
2022/11/26 12:17:03;;;;;;;24.13;16.27;;;;;;;;;;5083156;28;20212;-76
2022/11/26 12:19:29;;;;;;;29.77;17.07;;;;;;;;;;5086959;28;20844;-75
2022/11/26 12:22:02;;;;;;;20.93;15.53;;;;;;;;;;5078755;28;20212;-73
2022/11/26 12:24:28;;;;;;;24.20;16.13;;;;;;;;;;5090187;28;20192;-74
2022/11/26 12:26:58;;;;;;;25.93;15.60;;;;;;;;;;5083129;28;20212;-76
2022/11/26 12:29:42;;;;;;;24.73;15.63;;;;;;;;;;5087885;28;21908;-74
2022/11/26 12:32:22;;;;;;;21.30;14.07;;;;;;;;;;5079892;28;20188;-75
2022/11/26 12:34:53;;;;;;;20.53;15.80;;;;;;;;;;5077315;28;20208;-75
2022/11/26 12:37:19;;;;;;;21.60;14.30;;;;;;;;;;5085438;28;20219;-71
2022/11/26 12:39:45;;;;;;;20.07;13.07;;;;;;;;;;5078747;28;20208;-74
2022/11/26 12:42:30;;;;;;;21.00;12.30;;;;;;;;;;5078066;28;20567;-74
2022/11/26 12:45:01;;;;;;;22.17;12.67;;;;;;;;;;5065976;28;20179;-74
2022/11/26 12:47:31;;;;;;;18.27;12.07;;;;;;;;;;5078898;28;20201;-74
2022/11/26 12:50:03;;;;;;;21.03;12.47;;;;;;;;;;5075854;28;20187;-73
2022/11/26 12:52:42;;;;;;;17.90;12.10;;;;;;;;;;5081988;28;20816;-77
2022/11/26 12:55:11;;;;;;;20.73;12.00;;;;;;;;;;5063418;28;20223;-74
2022/11/26 12:58:01;;;;;;;16.07;10.77;;;;;;;;;;5063717;28;20200;-76
2022/11/26 13:00:29;;;;;;;19.80;12.53;;;;;;;;;;5074031;28;20212;-80
2022/11/26 13:02:55;;;;;;;20.90;11.70;;;;;;;;;;5085799;28;20216;-80
2022/11/26 13:05:27;;;;;;;18.03;11.17;;;;;;;;;;5077370;28;20707;-79
2022/11/26 13:07:56;;;;;;;17.73;11.53;;;;;;;;;;5070910;28;20588;-77
2022/11/26 13:10:32;;;;;;;17.50;11.40;;;;;;;;;;5086287;28;20614;-80
2022/11/26 13:13:08;;;;;;;22.03;12.13;;;;;;;;;;5081818;28;20181;-78
2022/11/26 13:15:41;;;;;;;20.83;11.77;;;;;;;;;;5093935;28;20211;-78
2022/11/26 13:18:14;;;;;;;17.77;11.40;;;;;;;;;;5084695;28;20212;-78
2022/11/26 13:20:55;;;;;;;20.03;11.57;;;;;;;;;;5085417;28;20274;-78
2022/11/26 13:23:42;;;;;;;17.00;10.07;;;;;;;;;;5091838;28;20238;-78
2022/11/26 13:26:08;;;;;;;16.90;10.73;;;;;;;;;;5083954;28;20208;-78
2022/11/26 13:29:00;;;;;;;17.47;11.03;;;;;;;;;;5097333;28;20184;-78
2022/11/26 13:31:44;;;;;;;18.07;10.30;;;;;;;;;;5094344;28;20545;-78
2022/11/26 13:34:17;;;;;;;17.13;10.20;;;;;;;;;;5089915;28;20176;-78
2022/11/26 13:36:43;;;;;;;18.83;10.93;;;;;;;;;;5090552;28;20201;-78
2022/11/26 13:39:31;;;;;;;14.43;9.70;;;;;;;;;;5088585;28;20169;-78
2022/11/26 13:42:12;;;;;;;15.60;10.00;;;;;;;;;;5084635;28;20196;-78
2022/11/26 13:44:38;;;;;;;14.90;9.00;;;;;;;;;;5082520;28;20900;-78
2022/11/26 13:47:08;;;;;;;15.83;10.43;;;;;;;;;;5097083;28;20200;-78
2022/11/26 13:49:43;;;;;;;16.73;9.60;;;;;;;;;;5065380;28;20188;-78
2022/11/26 13:52:11;;;;;;;14.03;9.07;;;;;;;;;;5078846;28;20189;-80
2022/11/26 13:54:40;;;;;;;20.00;11.37;;;;;;;;;;5076071;28;20195;-78
2022/11/26 13:57:09;;;;;;;15.90;9.63;;;;;;;;;;5075438;28;20219;-77
2022/11/26 13:59:36;;;;;;;13.37;9.13;;;;;;;;;;5078709;28;20773;-76
2022/11/26 14:02:21;;;;;;;15.37;8.83;;;;;;;;;;5071006;28;20756;-77
2022/11/26 14:04:47;;;;;;;17.80;9.47;;;;;;;;;;5071918;28;20176;-77
2022/11/26 14:07:13;;;;;;;14.47;9.50;;;;;;;;;;5074439;28;20201;-77
2022/11/26 14:09:45;;;;;;;19.77;10.83;;;;;;;;;;5083572;28;20221;-77
2022/11/26 14:12:14;;;;;;;17.53;10.37;;;;;;;;;;5077625;28;20295;-77
2022/11/26 14:14:41;;;;;;;23.60;12.07;;;;;;;;;;5090819;28;20184;-77
2022/11/26 14:17:07;;;;;;;14.43;9.00;;;;;;;;;;5076557;28;20211;-77
2022/11/26 14:19:40;;;;;;;15.90;10.27;;;;;;;;;;5067386;28;20184;-77
2022/11/26 14:22:15;;;;;;;14.30;9.57;;;;;;;;;;5083350;28;20560;-77
2022/11/26 14:27:14;;;;;;;13.30;8.87;;;;;;;;;;5087520;28;20208;-77
2022/11/26 14:29:40;;;;;;;14.07;9.03;;;;;;;;;;5090390;28;20187;-77
2022/11/26 14:32:16;;;;;;;19.73;10.10;;;;;;;;;;5070815;28;20551;-77
2022/11/26 14:34:48;;;;;;;16.67;8.90;;;;;;;;;;5086350;28;20184;-77
2022/11/26 14:37:16;;;;;;;13.63;9.03;;;;;;;;;;5085934;28;20236;-77
2022/11/26 14:39:42;;;;;;;17.00;8.93;;;;;;;;;;5088006;28;20185;-77
2022/11/26 14:42:15;;;;;;;18.27;9.73;;;;;;;;;;5084242;28;20568;-77
2022/11/26 14:44:42;;;;;;;17.73;9.73;;;;;;;;;;5085386;28;20305;-77